Strona główna
METAR-TAF:

METAR-TAF

Lotnisko :

Baie-Comeau, Quebec, Kanada

Szerokość geograficzna: 49-08N, Długość geograficzna: 068-12W, wysokość: 21 m

Aktualna obserwacja pogody

Raport powstał 35 minut temu, godzina 02:00 UTC
Wiatr 8 kt od zachodnio-południowy zachód
Temperatura -5°C
Wilgotność 86%
Ciśnienie 1011 hPa
Widzialność: 14.5 km
bezchmurnie

METAR: CYBC 170200Z AUTO 25008KT 9SM CLR M05/M07 A2984 RMK SLP107

czas: 21:35 (02:35 UTC)

Prognoza

Raport powstał 57 minut temu, godzina 01:38 UTC
Prognoza ważna od 17 godzina 02 UTC do 17 godzina 14 UTC
Wiatr 12 kt od zachód
Widzialność: 10 km
Przerywane chmury na wysokości 8000 ft
Stopniowe zmiany
od 17 godzina 02 UTC do 17 godzina 04 UTC
Wiatr 8 kt od zachodnio-północny zachód
Stopniowe zmiany
od 17 godzina 11 UTC do 17 godzina 13 UTC
bezchmurnie

TAF: CYBC 170138Z 1702/1714 26012KT P6SM BKN080 BECMG 1702/1704 30008KT BECMG 1711/1713 SKC RMK FCST BASED ON AUTO OBS. NXT FCST BY 170800Z

Obserwacja i prognoza pogody dla ponad 4000 lotnisk (raport METAR i TAF).

Dostępne stacje oznaczono żółtymi i czerwonymi punktami na mapie.

Najedź kursorem aby zobaczyć nazwę stacji.

Kliknij aby zobaczyć obserwacje i prognozy pogody.

Aby zmienić mapę: kliknij na zielony przycisk z czarnym krzyżykiem, aby powiększyć; na zielony przycisk z myślnikiem, aby pomniejszyć; na zielone strzałki, aby przejść do map sąsiednich.


METAR-TAF: